Time;durP1;ratioP1;P1;durP2;ratioP2;P2;SDS_P1;SDS_P2;PMS_P1;PMS_P2;Temp;Humidity;BMP_temperature;BMP_pressure;BME280_temperature;BME280_humidity;BME280_pressure;Samples;Min_cycle;Max_cycle;Signal;HPM_P1;HPM_P2
2021/06/17 00:00:38;;;;;;;8.93;3.73;;;19.10;99.90;;;20.13;100.00;97757.56;5067982;28;20472;-82
2021/06/17 00:03:07;;;;;;;6.33;4.00;;;19.00;99.90;;;20.14;100.00;97759.16;5067145;28;20803;-83
2021/06/17 00:05:37;;;;;;;3.57;3.23;;;19.00;99.90;;;20.04;100.00;97764.38;5068983;28;20517;-82
2021/06/17 00:08:09;;;;;;;9.53;4.03;;;18.90;99.90;;;19.84;100.00;97756.25;5066003;28;20467;-82
2021/06/17 00:10:40;;;;;;;8.67;4.40;;;18.70;99.90;;;19.66;100.00;97762.75;5068035;28;20541;-82
2021/06/17 00:13:14;;;;;;;6.53;3.57;;;18.50;99.90;;;19.79;100.00;97762.31;5064255;28;20492;-82
2021/06/17 00:15:45;;;;;;;4.80;3.53;;;18.60;99.90;;;19.79;100.00;97762.31;5066004;28;20468;-82
2021/06/17 00:18:15;;;;;;;6.70;3.67;;;18.60;99.90;;;19.74;100.00;97764.16;5065134;28;20866;-82
2021/06/17 00:20:44;;;;;;;4.43;3.50;;;18.60;99.90;;;19.60;100.00;97758.44;5066184;28;20920;-82
2021/06/17 00:23:15;;;;;;;5.90;3.57;;;18.40;99.90;;;19.62;100.00;97761.63;5066027;28;20964;-82
2021/06/17 00:25:44;;;;;;;6.93;4.07;;;18.50;99.90;;;19.67;100.00;97755.59;5063172;28;20475;-82
2021/06/17 00:28:13;;;;;;;5.50;4.23;;;18.50;99.90;;;19.56;100.00;97741.44;5066283;28;20465;-82
2021/06/17 00:30:43;;;;;;;8.43;3.50;;;18.40;99.90;;;19.40;100.00;97737.78;5064280;28;20526;-82
2021/06/17 00:33:12;;;;;;;3.97;3.57;;;18.30;99.90;;;19.53;100.00;97728.69;5064178;28;20491;-82
2021/06/17 00:35:41;;;;;;;5.93;3.90;;;18.40;99.90;;;19.50;100.00;97727.34;5066879;28;20463;-82
2021/06/17 00:38:09;;;;;;;7.27;4.00;;;18.30;99.90;;;19.53;100.00;97726.03;5063796;28;20499;-82
2021/06/17 00:40:41;;;;;;;10.10;3.57;;;18.30;99.90;;;19.53;100.00;97721.53;5059298;28;20867;-82
2021/06/17 00:43:10;;;;;;;6.80;4.20;;;18.30;99.90;;;19.61;100.00;97722.88;5064468;28;20968;-82
2021/06/17 00:45:43;;;;;;;7.37;4.20;;;18.40;99.90;;;19.41;100.00;97723.53;5065793;28;21049;-82
2021/06/17 00:48:13;;;;;;;5.80;4.60;;;18.20;99.90;;;19.27;100.00;97722.28;5067150;28;20871;-82
2021/06/17 00:50:46;;;;;;;4.30;3.90;;;18.10;99.90;;;19.19;100.00;97709.50;5066760;28;20497;-81
2021/06/17 00:53:20;;;;;;;6.10;4.37;;;18.00;99.90;;;19.29;100.00;97714.91;5062189;28;21061;-82
2021/06/17 00:55:50;;;;;;;11.40;4.40;;;18.20;99.90;;;19.32;100.00;97718.91;5065926;28;20464;-82
2021/06/17 00:58:19;;;;;;;9.03;4.13;;;18.20;99.90;;;19.00;100.00;97722.28;5067183;28;20437;-82
2021/06/17 01:00:48;;;;;;;8.93;3.20;;;17.80;99.90;;;19.06;100.00;97715.16;5066711;28;20472;-82
2021/06/17 01:03:19;;;;;;;4.53;3.60;;;17.90;99.90;;;19.06;100.00;97723.94;5064391;28;20517;-82
2021/06/17 01:05:48;;;;;;;4.67;3.47;;;17.90;99.90;;;19.05;100.00;97729.50;5063197;28;20542;-82
2021/06/17 01:08:33;;;;;;;4.73;3.37;;;17.80;99.90;;;18.94;100.00;97725.94;5063366;28;20533;-82
2021/06/17 01:11:14;;;;;;;5.73;3.90;;;17.80;99.90;;;18.87;100.00;97716.56;5065534;28;20471;-82
2021/06/17 01:13:51;;;;;;;5.90;3.80;;;17.70;99.90;;;19.00;100.00;97718.81;5064895;28;21061;-82
2021/06/17 01:16:32;;;;;;;4.70;3.00;;;17.80;99.90;;;19.04;100.00;97711.97;5063250;28;20460;-82
2021/06/17 01:19:09;;;;;;;4.63;4.10;;;17.90;99.90;;;19.00;100.00;97721.47;5067618;28;20459;-82
2021/06/17 01:22:13;;;;;;;17.37;3.93;;;17.80;99.90;;;19.09;100.00;97719.97;5063809;28;21089;-81
2021/06/17 01:25:05;;;;;;;5.60;3.53;;;18.00;99.90;;;18.92;100.00;97716.59;5064211;28;20468;-82
2021/06/17 01:28:06;;;;;;;5.30;4.03;;;17.80;99.90;;;18.77;100.00;97714.59;5062611;28;20531;-82
2021/06/17 01:30:46;;;;;;;6.70;3.90;;;17.60;99.90;;;18.66;100.00;97718.19;5063590;28;21075;-82
2021/06/17 01:33:18;;;;;;;4.30;3.57;;;17.50;99.90;;;18.56;100.00;97716.22;5063255;28;20466;-82
2021/06/17 01:35:50;;;;;;;3.90;3.53;;;17.40;99.90;;;18.69;100.00;97711.56;5065915;28;20468;-82
2021/06/17 01:38:24;;;;;;;4.50;4.03;;;17.60;99.90;;;18.84;100.00;97712.56;5062915;28;21053;-82
2021/06/17 01:40:56;;;;;;;9.40;4.13;;;17.80;99.90;;;18.80;100.00;97714.09;5064134;28;20488;-82
2021/06/17 01:43:28;;;;;;;4.17;3.67;;;17.70;99.90;;;18.71;100.00;97722.75;5065374;28;21034;-82
2021/06/17 01:45:59;;;;;;;5.33;4.37;;;17.60;99.90;;;18.68;100.00;97718.72;5062172;28;20877;-82
2021/06/17 01:48:30;;;;;;;5.47;3.87;;;17.50;99.90;;;18.54;100.00;97720.94;5060470;28;20486;-82
2021/06/17 01:50:59;;;;;;;5.83;3.67;;;17.40;99.90;;;18.65;100.00;97723.72;5064243;28;20464;-82
2021/06/17 01:53:29;;;;;;;4.83;3.77;;;17.50;99.90;;;18.51;100.00;97718.78;5067123;28;20480;-82
2021/06/17 01:56:00;;;;;;;11.33;3.93;;;17.40;99.90;;;18.66;100.00;97720.81;5070198;28;20491;-82
2021/06/17 01:58:33;;;;;;;4.70;3.80;;;17.50;99.90;;;18.38;100.00;97713.81;5066381;28;20899;-82
2021/06/17 02:01:04;;;;;;;8.43;4.27;;;17.30;99.90;;;18.31;100.00;97715.84;5068108;28;20536;-82
2021/06/17 02:03:34;;;;;;;5.03;3.63;;;17.10;99.90;;;18.49;100.00;97714.75;5065188;28;20561;-82
2021/06/17 02:06:04;;;;;;;8.73;3.80;;;17.40;99.90;;;18.62;100.00;97711.75;5067253;28;20471;-82
2021/06/17 02:08:33;;;;;;;5.13;3.40;;;17.50;99.90;;;18.59;100.00;97715.72;5068791;28;20456;-82
2021/06/17 02:11:03;;;;;;;7.40;3.73;;;17.50;99.90;;;18.54;100.00;97717.47;5068145;28;20475;-82
2021/06/17 02:13:34;;;;;;;6.83;4.10;;;17.40;99.90;;;18.46;100.00;97737.25;5066905;28;20521;-81
2021/06/17 02:16:05;;;;;;;14.60;5.00;;;17.30;99.90;;;18.42;100.00;97730.81;5068515;28;20475;-82
2021/06/17 02:18:37;;;;;;;6.53;4.10;;;17.20;99.90;;;18.38;100.00;97731.53;5069462;28;20870;-82
2021/06/17 02:21:09;;;;;;;4.10;3.60;;;17.20;99.90;;;18.25;100.00;97730.06;5068491;28;20441;-82
2021/06/17 02:23:39;;;;;;;6.87;4.03;;;17.10;99.90;;;18.30;100.00;97735.41;5069128;28;21071;-82
2021/06/17 02:26:10;;;;;;;5.30;3.37;;;17.10;99.90;;;18.15;100.00;97740.50;5065246;28;20486;-81
2021/06/17 02:28:46;;;;;;;8.40;4.00;;;17.00;99.90;;;17.98;100.00;97737.03;5064273;28;20472;-82
2021/06/17 02:31:20;;;;;;;5.10;4.00;;;16.80;99.90;;;18.01;100.00;97741.88;5068932;28;20472;-82
2021/06/17 02:33:51;;;;;;;3.77;3.40;;;16.80;99.90;;;18.03;100.00;97745.06;5068157;28;21039;-82
2021/06/17 02:36:25;;;;;;;9.93;3.67;;;16.80;99.90;;;18.04;100.00;97746.69;5067372;28;20811;-82
2021/06/17 02:38:57;;;;;;;6.43;3.97;;;16.80;99.90;;;17.83;100.00;97748.22;5066754;28;20983;-82
2021/06/17 02:41:28;;;;;;;5.57;3.77;;;16.60;99.90;;;17.75;100.00;97748.59;5065640;28;20964;-82
2021/06/17 02:44:00;;;;;;;6.20;3.80;;;16.50;99.90;;;17.94;100.00;97754.47;5068195;28;20472;-82
2021/06/17 02:46:29;;;;;;;5.47;4.03;;;16.70;99.90;;;17.83;100.00;97758.78;5069005;28;20460;-82
2021/06/17 02:48:58;;;;;;;5.97;4.43;;;16.60;99.90;;;17.74;100.00;97770.00;5068657;28;20467;-81
2021/06/17 02:51:26;;;;;;;5.90;3.73;;;16.50;99.90;;;17.87;100.00;97769.69;5069034;28;20518;-81
2021/06/17 02:53:55;;;;;;;5.27;3.73;;;16.70;99.90;;;17.97;100.00;97764.56;5067890;28;20464;-81
2021/06/17 02:56:29;;;;;;;8.03;3.50;;;16.80;99.90;;;17.99;100.00;97763.28;5068036;28;20506;-81
2021/06/17 02:59:17;;;;;;;4.43;3.60;;;16.90;99.90;;;17.99;100.00;97759.81;5063526;28;21013;-81
2021/06/17 03:01:55;;;;;;;10.93;3.70;;;16.80;99.90;;;18.08;100.00;97766.34;5066522;28;20480;-82
2021/06/17 03:04:33;;;;;;;7.70;4.30;;;16.90;99.90;;;18.05;100.00;97767.59;5067743;28;20936;-81
2021/06/17 03:07:08;;;;;;;8.53;4.33;;;16.90;99.90;;;18.12;100.00;97762.13;5068892;28;20464;-81
2021/06/17 03:09:46;;;;;;;6.07;3.73;;;17.00;99.90;;;18.17;100.00;97756.94;5067475;28;20507;-86
2021/06/17 03:12:17;;;;;;;8.20;3.67;;;17.10;99.90;;;17.95;100.00;97767.44;5068278;28;20466;-81
2021/06/17 03:14:50;;;;;;;11.00;3.63;;;16.80;99.90;;;18.02;100.00;97768.06;5066873;28;20495;-81
2021/06/17 03:17:21;;;;;;;7.47;3.43;;;16.90;99.90;;;17.99;100.00;97773.06;5067233;28;20456;-81
2021/06/17 03:19:54;;;;;;;6.70;4.20;;;16.80;99.90;;;18.09;100.00;97775.84;5067808;28;20816;-84
2021/06/17 03:22:26;;;;;;;4.90;3.40;;;17.00;99.90;;;18.19;100.00;97769.94;5065561;28;20522;-82
2021/06/17 03:25:03;;;;;;;6.93;3.73;;;17.20;99.90;;;18.15;100.00;97764.31;5069111;28;20460;-81
2021/06/17 03:27:33;;;;;;;5.13;3.80;;;17.10;99.90;;;18.09;100.00;97774.00;5066824;28;20477;-81
2021/06/17 03:30:06;;;;;;;8.23;3.80;;;17.00;99.90;;;18.12;100.00;97777.25;5069534;28;20441;-81
2021/06/17 03:32:39;;;;;;;6.90;3.60;;;17.00;99.90;;;18.05;100.00;97775.53;5069807;28;20433;-82
2021/06/17 03:35:10;;;;;;;4.83;3.50;;;17.00;99.90;;;18.05;100.00;97770.25;5069575;28;20553;-81
2021/06/17 03:37:40;;;;;;;12.73;3.17;;;17.00;99.90;;;18.00;100.00;97775.47;5063338;28;20507;-80
2021/06/17 03:40:10;;;;;;;5.90;3.70;;;16.90;99.90;;;17.91;100.00;97770.81;5070069;28;20841;-81
2021/06/17 03:42:40;;;;;;;4.87;3.60;;;16.70;99.90;;;18.03;100.00;97771.53;5067835;28;21015;-81
2021/06/17 03:45:13;;;;;;;4.73;3.90;;;16.90;99.90;;;18.01;100.00;97765.69;5069276;28;20506;-81
2021/06/17 03:47:46;;;;;;;11.43;4.40;;;17.00;99.90;;;18.06;100.00;97769.22;5069536;28;20506;-80
2021/06/17 03:50:18;;;;;;;6.20;4.40;;;17.00;99.90;;;18.11;100.00;97760.56;5067305;28;20456;-80
2021/06/17 03:52:48;;;;;;;5.87;3.93;;;17.00;99.90;;;18.13;100.00;97747.88;5066056;28;20907;-80
2021/06/17 03:55:19;;;;;;;5.87;3.80;;;17.00;99.90;;;17.99;100.00;97752.69;5068110;28;20568;-80
2021/06/17 03:57:49;;;;;;;5.60;4.30;;;16.80;99.90;;;17.92;100.00;97754.69;5067706;28;20468;-80
2021/06/17 04:00:20;;;;;;;9.63;4.63;;;16.70;99.90;;;18.03;100.00;97753.00;5065148;28;20951;-78
2021/06/17 04:02:49;;;;;;;5.77;4.13;;;16.90;99.90;;;18.02;100.00;97762.78;5067512;28;20487;-79
2021/06/17 04:05:18;;;;;;;4.43;4.03;;;16.90;99.90;;;17.95;100.00;97756.84;5069437;28;21053;-79
2021/06/17 04:07:48;;;;;;;10.03;4.80;;;16.90;99.90;;;17.99;100.00;97757.19;5069076;28;20448;-78
2021/06/17 04:10:21;;;;;;;6.07;3.80;;;17.00;99.90;;;18.04;100.00;97754.63;5069139;28;20462;-79
2021/06/17 04:12:54;;;;;;;6.80;3.93;;;17.00;99.90;;;18.13;100.00;97753.16;5068315;28;21013;-79
2021/06/17 04:15:27;;;;;;;5.30;4.13;;;17.00;99.90;;;18.14;100.00;97754.78;5067652;28;20988;-78
2021/06/17 04:18:00;;;;;;;5.70;3.80;;;17.00;99.90;;;18.14;100.00;97751.31;5068818;28;20441;-79
2021/06/17 04:20:35;;;;;;;7.03;3.77;;;17.00;99.90;;;18.06;100.00;97752.53;5069071;28;20486;-79
2021/06/17 04:23:07;;;;;;;5.90;3.97;;;16.90;99.90;;;18.04;100.00;97770.50;5069183;28;20935;-79
2021/06/17 04:25:39;;;;;;;6.97;4.93;;;16.90;99.90;;;18.06;100.00;97773.69;5069097;28;20455;-79
2021/06/17 04:28:09;;;;;;;8.10;4.10;;;17.00;99.90;;;18.13;100.00;97763.75;5068997;28;20497;-79
2021/06/17 04:30:41;;;;;;;6.70;4.30;;;17.00;99.90;;;18.24;100.00;97762.84;5069963;28;20448;-78
2021/06/17 04:33:18;;;;;;;6.50;4.40;;;17.20;99.90;;;18.26;100.00;97759.94;5070189;28;20448;-78
2021/06/17 04:35:51;;;;;;;9.90;4.00;;;17.20;99.90;;;18.22;100.00;97757.03;5070722;28;20496;-78
2021/06/17 04:38:23;;;;;;;13.90;4.10;;;17.10;99.90;;;18.22;100.00;97750.91;5070047;28;20520;-78
2021/06/17 04:40:53;;;;;;;9.40;3.70;;;17.20;99.90;;;18.09;100.00;97757.31;5070711;28;20460;-79
2021/06/17 04:43:24;;;;;;;5.83;3.73;;;17.10;99.90;;;18.08;100.00;97748.59;5069710;28;20944;-79
2021/06/17 04:45:56;;;;;;;4.17;3.77;;;17.00;99.90;;;18.17;100.00;97753.47;5070468;28;20448;-79
2021/06/17 04:48:33;;;;;;;4.57;3.87;;;17.10;99.90;;;18.10;100.00;97754.44;5070072;28;20476;-79
2021/06/17 04:51:04;;;;;;;6.90;4.30;;;17.00;99.90;;;18.23;100.00;97752.50;5060983;28;20443;-79
2021/06/17 04:53:35;;;;;;;8.30;4.70;;;17.10;99.90;;;18.15;100.00;97755.56;5069474;28;20952;-78
2021/06/17 04:56:05;;;;;;;7.63;4.07;;;17.10;99.90;;;18.15;100.00;97756.38;5069109;28;20487;-78
2021/06/17 04:58:36;;;;;;;5.93;4.30;;;17.00;99.90;;;18.22;100.00;97758.84;5070199;28;21015;-78
2021/06/17 05:01:06;;;;;;;4.80;4.10;;;17.10;99.90;;;18.30;100.00;97758.44;5069539;28;20513;-78
2021/06/17 05:03:36;;;;;;;7.43;4.33;;;17.20;99.90;;;18.43;100.00;97760.75;5065886;28;20441;-78
2021/06/17 05:06:06;;;;;;;5.50;4.07;;;17.30;99.90;;;18.41;100.00;97763.63;5069406;28;20943;-78
2021/06/17 05:11:21;;;;;;;4.60;3.97;;;17.20;99.90;;;18.38;100.00;97763.31;5063526;28;20444;-78
2021/06/17 05:13:50;;;;;;;6.90;4.03;;;17.30;99.90;;;18.39;100.00;97768.38;5069130;28;20444;-78
2021/06/17 05:16:20;;;;;;;7.80;5.13;;;17.30;99.90;;;18.42;100.00;97767.91;5069455;28;20475;-79
2021/06/17 05:18:49;;;;;;;5.83;4.17;;;17.30;99.90;;;18.37;100.00;97769.66;5068412;28;20479;-78
2021/06/17 05:21:18;;;;;;;9.83;4.40;;;17.30;99.90;;;18.42;100.00;97772.38;5068877;28;20502;-79
2021/06/17 05:23:46;;;;;;;11.40;4.53;;;17.40;99.90;;;18.46;100.00;97776.16;5069134;28;20444;-78
2021/06/17 05:26:15;;;;;;;4.63;3.87;;;17.40;99.90;;;18.56;100.00;97771.81;5068709;28;20437;-78
2021/06/17 05:28:43;;;;;;;6.03;4.03;;;17.60;99.90;;;18.68;100.00;97776.19;5067353;28;20448;-78
2021/06/17 05:31:12;;;;;;;6.73;4.70;;;17.60;99.90;;;18.73;100.00;97779.72;5068842;28;20861;-78
2021/06/17 05:33:43;;;;;;;11.53;4.93;;;17.70;99.90;;;18.85;100.00;97776.94;5068904;28;20440;-79
2021/06/17 05:36:12;;;;;;;6.47;4.43;;;17.80;99.90;;;18.93;100.00;97768.56;5067507;28;20507;-78
2021/06/17 05:38:41;;;;;;;8.70;4.60;;;17.90;99.90;;;19.02;100.00;97772.41;5065431;28;20448;-79
2021/06/17 05:41:10;;;;;;;5.97;4.67;;;18.00;99.90;;;19.11;100.00;97770.91;5069506;28;20479;-79
2021/06/17 05:43:39;;;;;;;7.87;4.73;;;18.10;99.90;;;19.16;100.00;97768.28;5068088;28;20452;-79
2021/06/17 05:46:07;;;;;;;6.43;4.63;;;18.20;99.90;;;19.22;100.00;97769.16;5066819;28;20502;-78
2021/06/17 05:48:36;;;;;;;12.60;4.50;;;18.20;99.90;;;19.22;100.00;97775.28;5068991;28;20524;-78
2021/06/17 05:51:06;;;;;;;6.90;4.90;;;18.30;99.90;;;19.27;100.00;97775.31;5068649;28;20444;-79
2021/06/17 05:53:36;;;;;;;6.50;4.40;;;18.30;99.90;;;19.30;100.00;97774.03;5070419;28;20990;-78
2021/06/17 05:56:05;;;;;;;5.70;4.40;;;18.30;99.90;;;19.36;100.00;97779.16;5067227;28;20468;-78
2021/06/17 05:58:35;;;;;;;5.70;4.20;;;18.40;99.90;;;19.37;100.00;97782.56;5068105;28;20670;-79
2021/06/17 06:01:05;;;;;;;7.53;4.60;;;18.40;99.90;;;19.40;100.00;97782.88;5068905;28;20522;-78
2021/06/17 06:03:34;;;;;;;10.07;4.40;;;18.40;99.90;;;19.40;100.00;97787.41;5065029;28;20453;-78
2021/06/17 06:06:02;;;;;;;9.23;4.67;;;18.40;99.90;;;19.46;100.00;97789.09;5068625;28;20475;-78
2021/06/17 06:08:32;;;;;;;6.07;4.50;;;18.40;99.90;;;19.56;100.00;97786.53;5067831;28;20451;-78
2021/06/17 06:11:01;;;;;;;7.00;4.73;;;18.60;99.90;;;19.67;100.00;97803.34;5068567;28;20452;-78
2021/06/17 06:13:31;;;;;;;5.80;4.80;;;18.70;99.90;;;19.69;100.00;97799.38;5066836;28;20448;-79
2021/06/17 06:16:01;;;;;;;7.10;4.60;;;18.70;99.90;;;19.80;100.00;97810.91;5068073;28;20991;-78
2021/06/17 06:18:34;;;;;;;9.80;5.23;;;18.80;99.90;;;19.89;100.00;97788.13;5068680;28;20896;-78
2021/06/17 06:21:03;;;;;;;7.20;5.00;;;19.00;99.90;;;19.96;100.00;97804.66;5069373;28;20938;-78
2021/06/17 06:23:34;;;;;;;8.87;4.63;;;19.00;99.90;;;20.01;100.00;97807.38;5069147;28;20467;-78
2021/06/17 06:26:03;;;;;;;6.93;4.50;;;19.10;99.90;;;20.08;100.00;97806.13;5069157;28;20929;-78
2021/06/17 06:28:32;;;;;;;7.00;5.00;;;19.10;99.90;;;20.19;100.00;97800.88;5069894;28;20510;-79
2021/06/17 06:31:02;;;;;;;7.20;4.80;;;19.30;99.90;;;20.27;100.00;97805.72;5083792;28;20459;-79
2021/06/17 06:33:33;;;;;;;6.30;4.30;;;19.40;99.90;;;20.34;100.00;97801.81;5069076;28;20444;-79
2021/06/17 06:36:02;;;;;;;7.53;4.73;;;19.50;99.90;;;20.41;100.00;97805.03;5068998;28;21042;-80
2021/06/17 06:38:30;;;;;;;7.60;4.63;;;19.50;99.90;;;20.49;100.00;97804.56;5067357;28;20503;-79
2021/06/17 06:41:00;;;;;;;6.77;4.90;;;19.60;99.90;;;20.54;100.00;97799.31;5073228;28;20450;-78
2021/06/17 06:43:29;;;;;;;8.27;4.70;;;19.60;99.90;;;20.62;100.00;97810.50;5071744;28;20457;-78
2021/06/17 06:45:58;;;;;;;5.13;4.30;;;19.70;99.90;;;20.69;100.00;97813.75;5072216;28;20455;-79
2021/06/17 06:48:26;;;;;;;6.60;4.53;;;19.80;99.90;;;20.75;100.00;97807.38;5071385;28;20878;-79
2021/06/17 06:50:55;;;;;;;6.93;5.33;;;19.90;99.90;;;20.81;100.00;97807.16;5071070;28;20510;-79
2021/06/17 06:53:24;;;;;;;4.77;4.23;;;19.90;99.90;;;20.89;100.00;97803.22;5072532;28;21004;-78
2021/06/17 06:55:53;;;;;;;7.60;5.17;;;20.00;99.90;;;20.94;100.00;97800.56;5071465;28;20437;-79
2021/06/17 06:58:22;;;;;;;8.50;4.60;;;20.10;99.90;;;21.03;100.00;97796.34;5071509;28;20936;-79
2021/06/17 07:00:51;;;;;;;7.37;5.03;;;20.20;99.90;;;21.10;100.00;97804.94;5070529;28;20452;-79
2021/06/17 07:03:21;;;;;;;7.47;5.53;;;20.30;99.90;;;21.18;100.00;97801.75;5071462;28;20497;-79
2021/06/17 07:05:50;;;;;;;6.50;5.10;;;20.30;99.90;;;21.27;100.00;97805.53;5070200;28;20539;-78
2021/06/17 07:08:19;;;;;;;7.63;4.60;;;20.50;99.90;;;21.34;100.00;97822.03;5070379;28;20478;-78
2021/06/17 07:10:48;;;;;;;12.70;5.37;;;20.50;99.90;;;21.39;100.00;97831.88;5071662;28;20440;-78
2021/06/17 07:13:18;;;;;;;10.50;5.17;;;20.70;99.90;;;21.47;100.00;97789.59;5071376;28;20464;-78
2021/06/17 07:15:48;;;;;;;9.57;4.73;;;20.70;99.90;;;21.54;100.00;97832.75;5071088;28;20830;-78
2021/06/17 07:18:17;;;;;;;8.20;6.00;;;20.80;99.90;;;21.62;100.00;97817.31;5071203;28;20556;-78
2021/06/17 07:20:45;;;;;;;5.50;3.80;;;20.90;99.90;;;21.67;100.00;97819.97;5062748;28;20444;-79
2021/06/17 07:23:14;;;;;;;6.80;4.27;;;20.90;99.90;;;21.74;100.00;97821.31;5070796;28;20969;-80
2021/06/17 07:25:43;;;;;;;7.60;4.60;;;21.00;99.90;;;21.81;100.00;97818.41;5071238;28;20460;-78
2021/06/17 07:28:12;;;;;;;7.77;4.93;;;21.10;99.90;;;21.88;100.00;97806.44;5070716;28;20463;-79
2021/06/17 07:30:41;;;;;;;8.47;4.40;;;21.10;99.90;;;21.95;100.00;97806.19;5070620;28;20452;-79
2021/06/17 07:33:11;;;;;;;9.10;5.03;;;21.20;99.90;;;22.03;100.00;97805.69;5070851;28;20448;-78
2021/06/17 07:35:40;;;;;;;9.00;5.13;;;21.30;99.90;;;22.11;100.00;97796.38;5071216;28;20854;-78
2021/06/17 07:38:09;;;;;;;5.93;4.80;;;21.50;99.90;;;22.19;100.00;97801.94;5069682;28;20541;-80
2021/06/17 07:40:40;;;;;;;7.73;4.80;;;21.50;99.90;;;22.27;100.00;97803.28;5070723;28;20444;-79
2021/06/17 07:43:10;;;;;;;9.10;4.93;;;21.60;99.90;;;22.35;100.00;97795.53;5071778;28;20506;-79
2021/06/17 07:45:40;;;;;;;8.27;4.83;;;21.60;99.90;;;22.42;100.00;97800.59;5068583;28;20448;-78
2021/06/17 07:48:12;;;;;;;11.73;5.53;;;21.70;99.90;;;22.48;100.00;97797.66;5071260;28;20467;-78
2021/06/17 07:50:42;;;;;;;12.30;5.87;;;21.80;99.90;;;22.55;100.00;97806.16;5071114;28;20449;-79
2021/06/17 07:53:11;;;;;;;4.93;4.13;;;21.80;99.90;;;22.61;100.00;97804.28;5069582;28;20475;-79
2021/06/17 07:55:40;;;;;;;8.30;5.03;;;21.90;99.90;;;22.69;100.00;97810.97;5070081;28;21128;-78
2021/06/17 07:58:15;;;;;;;6.43;4.20;;;22.00;99.90;;;22.75;100.00;97804.53;5070770;28;20586;-78
2021/06/17 08:00:45;;;;;;;9.43;5.57;;;22.10;99.90;;;22.79;100.00;97789.59;5070192;28;20458;-79
2021/06/17 08:03:19;;;;;;;8.90;6.00;;;22.10;99.90;;;22.86;100.00;97796.25;5070851;28;20488;-79
2021/06/17 08:05:48;;;;;;;12.40;4.97;;;22.20;99.90;;;22.95;100.00;97791.13;5068440;28;20444;-79
2021/06/17 08:08:17;;;;;;;11.90;4.80;;;22.30;99.90;;;23.02;100.00;97783.66;5069400;28;21016;-78
2021/06/17 08:10:46;;;;;;;5.47;4.47;;;22.40;99.90;;;23.12;100.00;97777.50;5070625;28;20858;-78
2021/06/17 08:13:14;;;;;;;9.97;4.80;;;22.50;99.90;;;23.19;100.00;97781.44;5067876;28;20585;-80
2021/06/17 08:15:47;;;;;;;10.97;4.47;;;22.50;99.90;;;23.28;100.00;97787.81;5070212;28;20532;-79
2021/06/17 08:18:19;;;;;;;7.23;4.80;;;22.70;99.90;;;23.36;100.00;97789.09;5070512;28;20484;-79
2021/06/17 08:20:49;;;;;;;8.40;5.00;;;22.70;99.90;;;23.43;100.00;97781.59;5071388;28;20455;-79
2021/06/17 08:23:21;;;;;;;19.57;6.00;;;22.80;99.90;;;23.50;100.00;97787.44;5070424;28;20529;-80
2021/06/17 08:25:50;;;;;;;7.17;5.70;;;22.90;99.90;;;23.57;100.00;97781.81;5070983;28;20444;-79
2021/06/17 08:28:23;;;;;;;19.67;6.00;;;22.90;99.90;;;23.62;100.00;97776.41;5068976;28;20432;-79
2021/06/17 08:30:51;;;;;;;6.70;5.80;;;23.00;99.90;;;23.68;100.00;97776.09;5069454;28;20440;-78
2021/06/17 08:33:21;;;;;;;9.43;4.93;;;23.00;99.90;;;23.74;100.00;97776.88;5069388;28;20452;-78
2021/06/17 08:35:52;;;;;;;9.77;5.57;;;23.10;99.90;;;23.77;100.00;97779.81;5065910;28;20969;-78
2021/06/17 08:38:21;;;;;;;9.00;5.50;;;23.10;99.90;;;23.86;100.00;97788.00;5069168;28;20490;-78
2021/06/17 08:40:50;;;;;;;6.90;5.33;;;23.20;99.90;;;23.94;100.00;97790.09;5069318;28;20444;-79
2021/06/17 08:43:18;;;;;;;5.83;5.13;;;23.30;99.90;;;23.97;99.34;97787.66;5069177;28;20444;-79
2021/06/17 08:45:47;;;;;;;6.67;5.10;;;23.30;99.90;;;24.04;99.73;97779.31;5068814;28;20444;-79
2021/06/17 08:48:15;;;;;;;9.47;6.00;;;23.40;99.90;;;24.08;99.99;97782.22;5059748;28;20812;-79
2021/06/17 08:50:46;;;;;;;8.27;5.70;;;23.40;99.90;;;24.12;100.00;97788.59;5068845;28;20932;-78
2021/06/17 08:53:14;;;;;;;9.23;6.00;;;23.40;99.90;;;24.14;100.00;97789.94;5069062;28;20517;-78
2021/06/17 08:55:43;;;;;;;5.63;5.03;;;23.40;99.90;;;24.20;100.00;97788.81;5068853;28;20447;-78
2021/06/17 08:58:11;;;;;;;12.53;8.37;;;23.50;99.90;;;24.28;99.25;97790.09;5069022;28;20621;-78
2021/06/17 09:00:42;;;;;;;9.23;6.40;;;23.60;99.90;;;24.37;100.00;97778.50;5068666;28;20501;-79
2021/06/17 09:03:12;;;;;;;9.27;6.57;;;23.70;99.90;;;24.44;99.26;97783.50;5067774;28;20487;-79
2021/06/17 09:05:45;;;;;;;9.87;5.90;;;23.80;99.90;;;24.48;98.57;97780.00;5066161;28;20888;-78
2021/06/17 09:08:15;;;;;;;8.90;6.40;;;23.80;99.90;;;24.57;96.87;97782.06;5068034;28;20460;-79
2021/06/17 09:10:44;;;;;;;8.30;6.13;;;24.00;99.90;;;24.63;96.50;97783.59;5068676;28;20448;-79
2021/06/17 09:13:14;;;;;;;6.10;5.50;;;24.00;99.90;;;24.73;96.26;97778.13;5068760;28;20821;-79
2021/06/17 09:15:48;;;;;;;7.20;5.70;;;24.20;99.90;;;24.79;95.85;97777.78;5068947;28;20444;-79
2021/06/17 09:18:26;;;;;;;12.57;6.80;;;24.20;99.90;;;24.85;95.96;97771.31;5068119;28;20488;-79
2021/06/17 09:21:00;;;;;;;11.77;6.33;;;24.30;99.90;;;24.89;96.13;97768.88;5068783;28;20498;-79
2021/06/17 09:23:36;;;;;;;7.60;5.30;;;24.30;99.90;;;24.94;95.46;97771.50;5067825;28;20468;-79
2021/06/17 09:26:11;;;;;;;9.60;6.13;;;24.40;99.90;;;24.96;95.24;97770.13;5068753;28;20493;-79
2021/06/17 09:28:56;;;;;;;13.40;6.23;;;24.30;99.90;;;25.04;95.41;97766.81;5068159;28;20436;-78
2021/06/17 09:31:28;;;;;;;8.73;6.10;;;24.40;99.90;;;25.12;94.99;97760.03;5068316;28;20440;-78
2021/06/17 09:33:59;;;;;;;7.30;6.20;;;24.50;99.90;;;25.18;95.16;97761.56;5068474;28;20437;-79
2021/06/17 09:36:31;;;;;;;9.53;5.60;;;24.60;99.90;;;25.22;96.06;97767.13;5068143;28;20780;-78
2021/06/17 09:39:03;;;;;;;7.73;6.10;;;24.60;99.90;;;25.31;95.96;97760.84;5068125;28;20492;-78
2021/06/17 09:41:36;;;;;;;8.17;5.90;;;24.80;99.90;;;25.41;94.10;97765.25;5068310;28;20920;-79
2021/06/17 09:44:08;;;;;;;8.87;5.47;;;24.90;99.90;;;25.46;94.61;97762.53;5068319;28;20457;-79
2021/06/17 09:46:36;;;;;;;8.30;6.50;;;24.90;99.90;;;25.51;94.69;97765.94;5068723;28;20961;-79
2021/06/17 09:49:09;;;;;;;9.37;5.97;;;24.90;99.90;;;25.57;95.14;97763.19;5067906;28;20509;-79
2021/06/17 09:51:44;;;;;;;7.50;6.30;;;25.00;99.90;;;25.59;94.60;97761.81;5060154;28;20997;-79
2021/06/17 09:54:25;;;;;;;10.50;6.30;;;25.10;99.90;;;25.66;94.79;97761.44;5067793;28;20448;-79
2021/06/17 09:56:59;;;;;;;10.10;6.20;;;25.10;99.90;;;25.71;95.67;97756.81;5063563;28;20932;-79
2021/06/17 09:59:41;;;;;;;10.30;6.07;;;25.20;99.90;;;25.81;94.96;97756.66;5068149;28;21093;-79
2021/06/17 10:02:17;;;;;;;11.87;6.40;;;25.30;99.90;;;25.90;94.74;97767.50;5064198;28;20525;-79
2021/06/17 10:04:46;;;;;;;8.97;5.97;;;25.40;99.90;;;25.98;94.42;97762.28;5068117;28;20447;-79
2021/06/17 10:07:18;;;;;;;9.30;6.27;;;25.50;99.90;;;26.03;94.46;97769.44;5068414;28;20917;-79
2021/06/17 10:09:48;;;;;;;10.83;6.23;;;25.50;99.90;;;26.07;96.01;97767.75;5067805;28;20475;-79
2021/06/17 10:12:19;;;;;;;12.30;6.10;;;25.40;99.90;;;26.13;95.18;97771.16;5068122;28;21045;-79
2021/06/17 10:14:49;;;;;;;8.63;5.90;;;25.50;99.90;;;26.16;95.05;97776.72;5071211;28;20639;-79
2021/06/17 10:17:18;;;;;;;12.60;6.30;;;25.50;99.90;;;26.20;93.77;97777.78;5075399;28;20455;-79
2021/06/17 10:19:48;;;;;;;8.80;6.53;;;25.70;99.90;;;26.27;93.57;97783.56;5079412;28;21251;-79
2021/06/17 10:22:24;;;;;;;7.43;5.90;;;25.70;99.90;;;26.32;93.96;97782.66;5071613;28;20439;-79
2021/06/17 10:24:52;;;;;;;8.27;6.70;;;25.80;99.90;;;26.41;94.80;97789.72;5071616;28;20443;-79
2021/06/17 10:27:31;;;;;;;9.53;6.63;;;25.90;99.90;;;26.49;93.65;97782.88;5071211;28;20872;-79
2021/06/17 10:30:00;;;;;;;20.13;7.30;;;25.90;99.90;;;26.60;92.97;97780.81;5070627;28;20443;-79
2021/06/17 10:32:37;;;;;;;9.03;7.17;;;26.20;99.90;;;26.70;93.02;97778.72;5071173;28;20440;-79